createdAt,value
2022-09-28T00:01:27.500Z,99294.34
2022-09-28T00:03:54.486Z,99299.16
2022-09-28T00:06:22.390Z,99294.31
2022-09-28T00:08:46.172Z,99298.34
2022-09-28T00:11:15.221Z,99302.66
2022-09-28T00:13:38.897Z,99299.38
2022-09-28T00:16:04.556Z,99298.69
2022-09-28T00:18:28.482Z,99297.53
2022-09-28T00:21:02.510Z,99301.44
2022-09-28T00:23:26.102Z,99290.78
2022-09-28T00:25:49.718Z,99297.06
2022-09-28T00:28:14.644Z,99287.66
2022-09-28T00:30:38.154Z,99291.75
2022-09-28T00:33:01.731Z,99286.25
2022-09-28T00:35:25.328Z,99289.81
2022-09-28T00:37:50.950Z,99286.44
2022-09-28T00:40:14.594Z,99287.59
2022-09-28T00:42:38.207Z,99282.78
2022-09-28T00:45:03.176Z,99282.53
2022-09-28T00:47:41.292Z,99280.75
2022-09-28T00:50:11.637Z,99278.66
2022-09-28T00:52:41.873Z,99279.84
2022-09-28T00:55:09.824Z,99280.16
2022-09-28T00:57:34.403Z,99286.38
2022-09-28T00:59:58.275Z,99280.72
2022-09-28T01:02:23.551Z,99286.69
2022-09-28T01:04:47.526Z,99283.56
2022-09-28T01:07:12.617Z,99280.88
2022-09-28T01:09:40.462Z,99282.91
2022-09-28T01:12:04.750Z,99283.38
2022-09-28T01:14:28.390Z,99285.34
2022-09-28T01:17:01.414Z,99278.66
2022-09-28T01:20:25.356Z,99278.06
2022-09-28T01:23:40.221Z,99276.72
2022-09-28T01:26:52.663Z,99276.59
2022-09-28T01:29:23.931Z,99275.31
2022-09-28T01:31:52.661Z,99272.00
2022-09-28T01:34:22.262Z,99269.00
2022-09-28T01:36:50.695Z,99272.47
2022-09-28T01:39:19.118Z,99267.34
2022-09-28T01:41:47.418Z,99272.19
2022-09-28T01:44:16.495Z,99264.66
2022-09-28T01:46:44.831Z,99268.81
2022-09-28T01:49:17.569Z,99258.91
2022-09-28T01:51:45.151Z,99258.94
2022-09-28T01:54:13.814Z,99260.94
2022-09-28T01:56:44.182Z,99257.91
2022-09-28T01:59:15.606Z,99253.22
2022-09-28T02:01:44.541Z,99256.25
2022-09-28T02:04:14.760Z,99249.88
2022-09-28T02:06:49.029Z,99251.56
2022-09-28T02:09:18.158Z,99247.53
2022-09-28T02:11:51.531Z,99253.41
2022-09-28T02:14:19.778Z,99247.88
2022-09-28T02:16:46.689Z,99250.88
2022-09-28T02:19:14.189Z,99255.22
2022-09-28T02:21:44.704Z,99253.53
2022-09-28T02:24:21.269Z,99254.16
2022-09-28T02:26:49.362Z,99251.88
2022-09-28T02:29:13.067Z,99250.31
2022-09-28T02:31:38.241Z,99246.31
2022-09-28T02:34:01.940Z,99243.66
2022-09-28T02:36:27.912Z,99243.78
2022-09-28T02:38:51.431Z,99237.06
2022-09-28T02:41:35.684Z,99240.41
2022-09-28T02:44:11.719Z,99241.63
2022-09-28T02:46:47.951Z,99235.56
2022-09-28T02:49:31.202Z,99241.06
2022-09-28T02:52:34.988Z,99234.06
2022-09-28T02:55:18.734Z,99236.75
2022-09-28T02:58:01.647Z,99236.59
2022-09-28T03:00:26.015Z,99227.47
2022-09-28T03:03:13.551Z,99231.38
2022-09-28T03:05:47.154Z,99233.03
2022-09-28T03:08:22.361Z,99233.84
2022-09-28T03:10:50.956Z,99222.88
2022-09-28T03:13:16.417Z,99230.88
2022-09-28T03:15:40.476Z,99226.63
2022-09-28T03:18:05.928Z,99220.88
2022-09-28T03:20:31.489Z,99223.94
2022-09-28T03:23:20.178Z,99217.72
2022-09-28T03:25:38.904Z,99218.56
2022-09-28T03:28:02.975Z,99219.09
2022-09-28T03:30:30.062Z,99212.88
2022-09-28T03:32:59.583Z,99211.84
2022-09-28T03:35:26.948Z,99212.16
2022-09-28T03:37:50.631Z,99210.00
2022-09-28T03:40:14.386Z,99205.13
2022-09-28T03:42:38.817Z,99202.09
2022-09-28T03:45:02.377Z,99207.13
2022-09-28T03:47:26.023Z,99210.63
2022-09-28T03:49:49.630Z,99209.16
2022-09-28T03:52:15.325Z,99209.13
2022-09-28T03:54:39.014Z,99208.25
2022-09-28T03:57:02.615Z,99199.06
2022-09-28T03:59:26.418Z,99197.38
2022-09-28T04:01:51.199Z,99192.84
2022-09-28T04:04:15.390Z,99198.22
2022-09-28T04:06:38.942Z,99188.28
2022-09-28T04:09:03.927Z,99189.13
2022-09-28T04:11:34.926Z,99184.44
2022-09-28T04:14:06.638Z,99189.13
2022-09-28T04:16:30.334Z,99183.38
2022-09-28T04:19:06.555Z,99178.19
2022-09-28T04:21:44.974Z,99181.22
2022-09-28T04:24:12.804Z,99181.06
2022-09-28T04:26:36.359Z,99180.19
2022-09-28T04:29:17.057Z,99177.97
2022-09-28T04:31:49.650Z,99186.22
2022-09-28T04:34:17.348Z,99181.56
2022-09-28T04:36:41.092Z,99186.75
2022-09-28T04:39:06.195Z,99187.34
2022-09-28T04:41:31.446Z,99186.19
2022-09-28T04:43:55.164Z,99181.88
2022-09-28T04:46:21.599Z,99184.03
2022-09-28T04:48:53.677Z,99184.06
2022-09-28T04:51:41.271Z,99185.41
2022-09-28T04:54:05.062Z,99190.13
2022-09-28T04:56:30.548Z,99188.75
2022-09-28T04:58:54.203Z,99189.78
2022-09-28T05:01:23.642Z,99190.94
2022-09-28T05:03:56.635Z,99184.06
2022-09-28T05:06:30.786Z,99192.59
2022-09-28T05:09:02.781Z,99190.25
2022-09-28T05:11:26.386Z,99191.56
2022-09-28T05:13:51.454Z,99197.28
2022-09-28T05:16:17.197Z,99196.28
2022-09-28T05:19:03.890Z,99194.63
2022-09-28T05:21:29.293Z,99193.25
2022-09-28T05:23:56.061Z,99191.56
2022-09-28T05:26:20.173Z,99192.91
2022-09-28T05:28:44.667Z,99184.84
2022-09-28T05:31:41.577Z,99186.19
2022-09-28T05:34:22.427Z,99188.22
2022-09-28T05:36:46.067Z,99195.75
2022-09-28T05:39:10.111Z,99189.56
2022-09-28T05:41:33.851Z,99195.28
2022-09-28T05:43:58.174Z,99200.28
2022-09-28T05:46:23.811Z,99196.25
2022-09-28T05:48:49.759Z,99198.31
2022-09-28T05:51:14.127Z,99196.56
2022-09-28T05:53:37.809Z,99189.91
2022-09-28T05:56:02.242Z,99189.28
2022-09-28T05:58:29.079Z,99187.53
2022-09-28T06:00:56.548Z,99187.28
2022-09-28T06:03:20.136Z,99187.94
2022-09-28T06:05:45.350Z,99184.28
2022-09-28T06:08:11.654Z,99177.56
2022-09-28T06:10:40.938Z,99176.94
2022-09-28T06:13:04.696Z,99176.50
2022-09-28T06:15:30.528Z,99178.59
2022-09-28T06:17:59.587Z,99182.41
2022-09-28T06:20:36.876Z,99167.31
2022-09-28T06:23:07.749Z,99169.72
2022-09-28T06:25:31.468Z,99164.88
2022-09-28T06:27:59.423Z,99157.19
2022-09-28T06:30:23.440Z,99152.66
2022-09-28T06:32:46.983Z,99157.03
2022-09-28T06:37:34.479Z,99158.88
2022-09-28T06:40:00.596Z,99158.88
2022-09-28T06:42:24.230Z,99162.25
2022-09-28T06:45:08.170Z,99160.38
2022-09-28T06:48:01.483Z,99156.34
2022-09-28T06:50:36.024Z,99160.66
2022-09-28T06:53:17.988Z,99157.72
2022-09-28T06:55:54.006Z,99149.31
2022-09-28T06:58:20.761Z,99153.03
2022-09-28T07:00:45.285Z,99158.69
2022-09-28T07:03:13.007Z,99154.97
2022-09-28T07:05:59.588Z,99156.00
2022-09-28T07:08:36.355Z,99146.44
2022-09-28T07:11:21.232Z,99152.50
2022-09-28T07:14:07.075Z,99158.22
2022-09-28T07:16:52.684Z,99150.78
2022-09-28T07:19:16.597Z,99155.81
2022-09-28T07:21:40.955Z,99147.41
2022-09-28T07:24:05.611Z,99147.56
2022-09-28T07:26:53.308Z,99151.59
2022-09-28T07:29:28.571Z,99150.41
2022-09-28T07:31:57.070Z,99144.03
2022-09-28T07:34:41.327Z,99147.66
2022-09-28T07:37:27.394Z,99147.91
2022-09-28T07:40:08.622Z,99148.56
2022-09-28T07:42:36.350Z,99151.66
2022-09-28T07:45:00.135Z,99151.78
2022-09-28T07:47:30.805Z,99147.13
2022-09-28T07:50:16.722Z,99154.00
2022-09-28T07:52:50.170Z,99155.69
2022-09-28T07:55:24.787Z,99151.84
2022-09-28T07:58:05.594Z,99145.81
2022-09-28T08:00:48.798Z,99147.47
2022-09-28T08:03:12.920Z,99147.94
2022-09-28T08:05:36.513Z,99150.41
2022-09-28T08:08:00.539Z,99155.75
2022-09-28T08:10:25.692Z,99151.50
2022-09-28T08:13:08.722Z,99152.03
2022-09-28T08:15:36.940Z,99144.97
2022-09-28T08:18:08.796Z,99151.97
2022-09-28T08:20:51.565Z,99150.84
2022-09-28T08:23:15.715Z,99149.94
2022-09-28T08:25:39.279Z,99157.94
2022-09-28T08:28:03.996Z,99157.56
2022-09-28T08:30:31.733Z,99157.09
2022-09-28T08:33:14.247Z,99150.16
2022-09-28T08:35:37.998Z,99158.38
2022-09-28T08:38:19.981Z,99165.66
2022-09-28T08:41:20.616Z,99162.94
2022-09-28T08:44:24.167Z,99163.38
2022-09-28T08:47:29.215Z,99159.88
2022-09-28T08:50:19.152Z,99153.84
2022-09-28T08:53:14.719Z,99159.00
2022-09-28T08:55:49.554Z,99163.19
2022-09-28T08:58:17.719Z,99160.75
2022-09-28T09:00:48.668Z,99162.84
2022-09-28T09:03:19.458Z,99168.69
2022-09-28T09:06:03.707Z,99170.59
2022-09-28T09:09:01.051Z,99169.09
2022-09-28T09:11:45.343Z,99167.06
2022-09-28T09:14:53.227Z,99162.03
2022-09-28T09:17:29.359Z,99173.91
2022-09-28T09:20:24.250Z,99172.63
2022-09-28T09:23:01.694Z,99171.38
2022-09-28T09:25:29.733Z,99173.28
2022-09-28T09:28:40.782Z,99171.53
2022-09-28T09:31:22.717Z,99167.59
2022-09-28T09:34:45.999Z,99169.28
2022-09-28T09:38:06.577Z,99173.22
2022-09-28T09:40:58.911Z,99170.66
2022-09-28T09:44:11.771Z,99169.94
2022-09-28T09:46:47.105Z,99172.00
2022-09-28T09:49:17.585Z,99168.16
2022-09-28T09:51:47.482Z,99164.59
2022-09-28T09:54:22.436Z,99157.41
2022-09-28T09:56:53.403Z,99160.34
2022-09-28T09:59:47.231Z,99158.22
2022-09-28T10:02:26.226Z,99160.81
2022-09-28T10:05:03.403Z,99155.28
2022-09-28T10:07:43.425Z,99151.34
2022-09-28T10:10:15.451Z,99158.84
2022-09-28T10:12:49.672Z,99155.56
2022-09-28T10:15:17.874Z,99149.44
2022-09-28T10:17:51.367Z,99153.09
2022-09-28T10:20:38.308Z,99156.09
2022-09-28T10:23:20.244Z,99156.16
2022-09-28T10:25:47.714Z,99154.81
2022-09-28T10:28:20.751Z,99159.13
2022-09-28T10:30:45.040Z,99154.91
2022-09-28T10:33:31.135Z,99155.59
2022-09-28T10:35:55.339Z,99156.53
2022-09-28T10:38:20.373Z,99152.59
2022-09-28T10:40:50.525Z,99150.69
2022-09-28T10:43:28.313Z,99149.72
2022-09-28T10:46:04.858Z,99153.31
2022-09-28T10:48:31.641Z,99160.75
2022-09-28T10:51:05.238Z,99150.44
2022-09-28T10:53:30.268Z,99150.22
2022-09-28T10:56:04.572Z,99160.28
2022-09-28T10:58:35.427Z,99156.56
2022-09-28T11:01:09.327Z,99161.69
2022-09-28T11:03:33.295Z,99156.69
2022-09-28T11:06:05.068Z,99164.38
2022-09-28T11:08:32.963Z,99159.31
2022-09-28T11:11:12.235Z,99157.53
2022-09-28T11:13:48.839Z,99155.09
2022-09-28T11:16:30.086Z,99158.69
2022-09-28T11:18:55.110Z,99152.91
2022-09-28T11:21:24.090Z,99159.78
2022-09-28T11:24:19.713Z,99161.13
2022-09-28T11:26:48.442Z,99160.88
2022-09-28T11:29:32.179Z,99153.81
2022-09-28T11:32:23.031Z,99154.28
2022-09-28T11:35:20.758Z,99163.19
2022-09-28T11:38:05.183Z,99157.91
2022-09-28T11:41:28.648Z,99169.47
2022-09-28T11:44:39.579Z,99167.16
2022-09-28T11:47:50.549Z,99173.19
2022-09-28T11:50:31.810Z,99178.69
2022-09-28T11:53:10.731Z,99174.28
2022-09-28T11:55:40.373Z,99192.09
2022-09-28T11:58:12.066Z,99179.41
2022-09-28T12:00:45.527Z,99177.78
2022-09-28T12:03:17.535Z,99181.09
2022-09-28T12:05:48.111Z,99180.28
2022-09-28T12:08:19.282Z,99180.25
2022-09-28T12:11:07.090Z,99190.06
2022-09-28T12:13:51.563Z,99184.97
2022-09-28T12:16:46.856Z,99180.03
2022-09-28T12:19:09.519Z,99175.78
2022-09-28T12:21:42.679Z,99172.72
2022-09-28T12:24:15.623Z,99172.47
2022-09-28T12:26:48.807Z,99169.44
2022-09-28T12:29:17.412Z,99172.91
2022-09-28T12:31:58.031Z,99180.84
2022-09-28T12:34:22.720Z,99178.97
2022-09-28T12:37:07.094Z,99172.88
2022-09-28T12:39:57.422Z,99163.44
2022-09-28T12:42:42.396Z,99175.56
2022-09-28T12:45:28.826Z,99178.63
2022-09-28T12:48:21.687Z,99185.19
2022-09-28T12:50:57.629Z,99186.06
2022-09-28T12:53:51.348Z,99176.53
2022-09-28T12:56:21.697Z,99184.53
2022-09-28T12:59:03.309Z,99179.78
2022-09-28T13:01:59.944Z,99180.28
2022-09-28T13:04:48.865Z,99180.41
2022-09-28T13:07:22.840Z,99178.38
2022-09-28T13:09:55.076Z,99184.16
2022-09-28T13:12:36.581Z,99174.81
2022-09-28T13:15:42.878Z,99185.06
2022-09-28T13:18:18.728Z,99177.81
2022-09-28T13:21:01.432Z,99189.97
2022-09-28T13:23:29.569Z,99186.50
2022-09-28T13:25:58.662Z,99187.97
2022-09-28T13:28:27.013Z,99188.09
2022-09-28T13:30:51.801Z,99182.78
2022-09-28T13:33:24.155Z,99183.25
2022-09-28T13:35:49.371Z,99187.16
2022-09-28T13:38:50.951Z,99182.22
2022-09-28T13:41:24.910Z,99193.00
2022-09-28T13:44:33.199Z,99192.19
2022-09-28T13:47:21.226Z,99192.09
2022-09-28T13:50:00.433Z,99190.72
2022-09-28T13:52:41.459Z,99195.88
2022-09-28T13:55:22.162Z,99198.13
2022-09-28T13:57:51.930Z,99195.50
2022-09-28T14:00:23.447Z,99198.25
2022-09-28T14:02:50.592Z,99208.44
2022-09-28T14:05:51.128Z,99205.91
2022-09-28T14:08:36.510Z,99210.91
2022-09-28T14:11:45.488Z,99209.44
2022-09-28T14:14:48.696Z,99208.00
2022-09-28T14:18:02.358Z,99209.78
2022-09-28T14:20:28.519Z,99218.41
2022-09-28T14:23:37.764Z,99214.66
2022-09-28T14:26:21.782Z,99220.13
2022-09-28T14:29:01.949Z,99219.69
2022-09-28T14:31:28.944Z,99224.53
2022-09-28T14:33:58.999Z,99227.63
2022-09-28T14:36:41.303Z,99226.03
2022-09-28T14:39:22.732Z,99233.69
2022-09-28T14:41:46.679Z,99235.53
2022-09-28T14:44:13.556Z,99231.56
2022-09-28T14:46:44.780Z,99233.75
2022-09-28T14:49:47.582Z,99237.22
2022-09-28T14:52:13.881Z,99234.97
2022-09-28T14:54:46.546Z,99232.03
2022-09-28T14:57:18.833Z,99233.13
2022-09-28T14:59:46.268Z,99243.28
2022-09-28T15:02:21.196Z,99242.38
2022-09-28T15:04:50.400Z,99237.63
2022-09-28T15:07:23.200Z,99239.69
2022-09-28T15:09:51.383Z,99237.88
2022-09-28T15:12:19.231Z,99234.63
2022-09-28T15:14:49.040Z,99236.59
2022-09-28T15:17:14.944Z,99242.56
2022-09-28T15:19:46.087Z,99240.31
2022-09-28T15:22:17.254Z,99238.16
2022-09-28T15:24:41.295Z,99246.28
2022-09-28T15:27:16.061Z,99244.22
2022-09-28T15:29:40.651Z,99244.38
2022-09-28T15:32:05.669Z,99250.59
2022-09-28T15:34:49.683Z,99244.69
2022-09-28T15:37:13.578Z,99255.06
2022-09-28T15:39:37.439Z,99249.16
2022-09-28T15:42:02.583Z,99262.78
2022-09-28T15:44:34.014Z,99270.50
2022-09-28T15:47:15.037Z,99263.44
2022-09-28T15:49:44.511Z,99270.72
2022-09-28T15:52:19.639Z,99272.97
2022-09-28T15:54:45.970Z,99273.94
2022-09-28T15:57:36.994Z,99279.91
2022-09-28T16:00:01.829Z,99280.28
2022-09-28T16:02:37.253Z,99278.88
2022-09-28T16:05:04.630Z,99286.47
2022-09-28T16:07:38.528Z,99282.25
2022-09-28T16:10:11.235Z,99286.31
2022-09-28T16:12:46.159Z,99290.31
2022-09-28T16:15:20.521Z,99295.44
2022-09-28T16:17:52.451Z,99284.97
2022-09-28T16:20:29.482Z,99289.03
2022-09-28T16:22:53.495Z,99299.81
2022-09-28T16:25:23.060Z,99306.50
2022-09-28T16:27:47.386Z,99303.13
2022-09-28T16:30:24.454Z,99308.31
2022-09-28T16:32:56.445Z,99305.28
2022-09-28T16:35:25.999Z,99313.50
2022-09-28T16:37:58.408Z,99316.31
2022-09-28T16:40:23.248Z,99321.25
2022-09-28T16:42:49.377Z,99321.50
2022-09-28T16:45:21.673Z,99324.66
2022-09-28T16:47:47.226Z,99326.50
2022-09-28T16:50:16.966Z,99338.94
2022-09-28T16:53:09.186Z,99333.53
2022-09-28T16:55:40.412Z,99332.13
2022-09-28T16:58:06.729Z,99338.16
2022-09-28T17:00:30.235Z,99340.81
2022-09-28T17:02:54.728Z,99343.34
2022-09-28T17:05:20.538Z,99344.16
2022-09-28T17:07:44.627Z,99340.59
2022-09-28T17:10:19.267Z,99349.06
2022-09-28T17:12:43.156Z,99347.75
2022-09-28T17:15:07.847Z,99348.59
2022-09-28T17:17:31.539Z,99352.59
2022-09-28T17:19:55.079Z,99351.38
2022-09-28T17:22:20.055Z,99349.41
2022-09-28T17:24:45.564Z,99353.81
2022-09-28T17:27:17.972Z,99351.25
2022-09-28T17:29:41.635Z,99356.97
2022-09-28T17:32:10.619Z,99356.16
2022-09-28T17:34:34.172Z,99355.50
2022-09-28T17:36:57.833Z,99354.59
2022-09-28T17:39:24.995Z,99358.34
2022-09-28T17:41:48.746Z,99366.72
2022-09-28T17:44:16.212Z,99358.84
2022-09-28T17:46:45.977Z,99364.22
2022-09-28T17:49:12.995Z,99362.56
2022-09-28T17:51:38.533Z,99363.38
2022-09-28T17:54:02.887Z,99371.97
2022-09-28T17:56:32.564Z,99359.38
2022-09-28T17:58:57.852Z,99362.94
2022-09-28T18:01:21.796Z,99364.09
2022-09-28T18:03:45.714Z,99372.03
2022-09-28T18:06:14.540Z,99372.84
2022-09-28T18:08:38.639Z,99378.72
2022-09-28T18:11:02.728Z,99384.97
2022-09-28T18:13:27.692Z,99381.09
2022-09-28T18:15:52.725Z,99384.13
2022-09-28T18:18:16.370Z,99392.38
2022-09-28T18:20:41.356Z,99383.28
2022-09-28T18:23:05.743Z,99385.47
2022-09-28T18:25:29.724Z,99390.84
2022-09-28T18:27:57.223Z,99396.06
2022-09-28T18:30:22.149Z,99398.59
2022-09-28T18:32:45.693Z,99409.69
2022-09-28T18:35:11.387Z,99401.94
2022-09-28T18:37:37.619Z,99416.25
2022-09-28T18:40:01.194Z,99418.25
2022-09-28T18:42:24.888Z,99412.19
2022-09-28T18:44:48.429Z,99410.84
2022-09-28T18:47:15.142Z,99414.38
2022-09-28T18:49:38.689Z,99421.75
2022-09-28T18:52:02.920Z,99415.34
2022-09-28T18:54:27.858Z,99429.63
2022-09-28T18:56:51.789Z,99426.78
2022-09-28T18:59:15.576Z,99429.47
2022-09-28T19:01:39.490Z,99429.78
2022-09-28T19:04:07.919Z,99427.03
2022-09-28T19:06:32.132Z,99436.41
2022-09-28T19:08:56.643Z,99433.00
2022-09-28T19:11:20.611Z,99435.00
2022-09-28T19:13:45.004Z,99433.44
2022-09-28T19:16:10.048Z,99434.34
2022-09-28T19:18:33.934Z,99440.53
2022-09-28T19:21:04.596Z,99436.34
2022-09-28T19:23:28.168Z,99440.31
2022-09-28T19:25:51.699Z,99445.47
2022-09-28T19:28:15.252Z,99445.13
2022-09-28T19:30:38.877Z,99448.13
2022-09-28T19:33:02.489Z,99443.56
2022-09-28T19:35:26.013Z,99455.44
2022-09-28T19:37:51.477Z,99448.88
2022-09-28T19:40:15.092Z,99448.81
2022-09-28T19:42:39.635Z,99454.03
2022-09-28T19:45:03.392Z,99450.50
2022-09-28T19:47:26.932Z,99455.81
2022-09-28T19:49:50.462Z,99457.81
2022-09-28T19:52:17.174Z,99455.94
2022-09-28T19:54:43.948Z,99455.66
2022-09-28T19:57:08.967Z,99454.13
2022-09-28T19:59:32.647Z,99458.16
2022-09-28T20:01:56.305Z,99452.50
2022-09-28T20:04:22.896Z,99460.72
2022-09-28T20:06:46.415Z,99458.16
2022-09-28T20:09:10.031Z,99459.78
2022-09-28T20:11:35.902Z,99460.84
2022-09-28T20:14:00.754Z,99468.53
2022-09-28T20:16:24.555Z,99465.94
2022-09-28T20:18:50.199Z,99479.72
2022-09-28T20:21:17.197Z,99474.75
2022-09-28T20:23:41.801Z,99474.59
2022-09-28T20:26:06.187Z,99477.59
2022-09-28T20:28:31.225Z,99481.81
2022-09-28T20:30:55.150Z,99472.66
2022-09-28T20:33:28.665Z,99486.41
2022-09-28T20:35:52.670Z,99481.56
2022-09-28T20:38:16.195Z,99488.75
2022-09-28T20:40:41.146Z,99492.16
2022-09-28T20:43:07.168Z,99495.53
2022-09-28T20:45:32.166Z,99487.31
2022-09-28T20:47:55.679Z,99493.84
2022-09-28T20:50:19.893Z,99501.53
2022-09-28T20:52:43.519Z,99499.78
2022-09-28T20:55:08.219Z,99502.59
2022-09-28T20:57:31.839Z,99499.94
2022-09-28T20:59:55.347Z,99506.09
2022-09-28T21:02:20.375Z,99510.19
2022-09-28T21:04:43.995Z,99510.88
2022-09-28T21:07:07.553Z,99515.34
2022-09-28T21:09:32.220Z,99515.47
2022-09-28T21:11:55.727Z,99516.09
2022-09-28T21:14:19.432Z,99521.81
2022-09-28T21:16:43.017Z,99524.31
2022-09-28T21:19:08.230Z,99521.63
2022-09-28T21:21:31.993Z,99527.69
2022-09-28T21:23:55.816Z,99524.56
2022-09-28T21:26:25.599Z,99522.94
2022-09-28T21:28:49.149Z,99526.63
2022-09-28T21:31:13.505Z,99525.53
2022-09-28T21:33:37.400Z,99541.31
2022-09-28T21:36:04.975Z,99534.34
2022-09-28T21:38:28.605Z,99537.22
2022-09-28T21:40:57.176Z,99536.47
2022-09-28T21:43:20.779Z,99546.31
2022-09-28T21:45:44.337Z,99539.63
2022-09-28T21:48:07.896Z,99532.28
2022-09-28T21:50:31.419Z,99542.66
2022-09-28T21:52:57.312Z,99542.94
2022-09-28T21:55:22.120Z,99546.00
2022-09-28T21:57:48.186Z,99544.69
2022-09-28T22:00:14.458Z,99555.22
2022-09-28T22:02:39.681Z,99546.09
2022-09-28T22:05:03.238Z,99555.03
2022-09-28T22:07:26.986Z,99553.72
2022-09-28T22:09:53.644Z,99548.38
2022-09-28T22:12:17.625Z,99547.22
2022-09-28T22:14:41.138Z,99552.06
2022-09-28T22:17:04.739Z,99548.78
2022-09-28T22:19:28.295Z,99545.91
2022-09-28T22:21:51.884Z,99546.38
2022-09-28T22:24:15.425Z,99546.91
2022-09-28T22:26:40.913Z,99549.97
2022-09-28T22:29:07.176Z,99549.59
2022-09-28T22:31:33.419Z,99557.41
2022-09-28T22:33:57.463Z,99555.63
2022-09-28T22:36:21.310Z,99557.97
2022-09-28T22:38:45.423Z,99559.13
2022-09-28T22:41:09.053Z,99560.72
2022-09-28T22:43:34.800Z,99563.88
2022-09-28T22:46:06.015Z,99560.34
2022-09-28T22:48:29.663Z,99562.72
2022-09-28T22:50:53.835Z,99566.97
2022-09-28T22:53:17.483Z,99566.34
2022-09-28T22:55:42.712Z,99563.03
2022-09-28T22:58:06.425Z,99562.41
2022-09-28T23:00:31.567Z,99571.94
2022-09-28T23:02:55.258Z,99570.56
2022-09-28T23:05:20.690Z,99564.03
2022-09-28T23:07:44.603Z,99559.97
2022-09-28T23:10:09.094Z,99566.00
2022-09-28T23:12:33.397Z,99565.00
2022-09-28T23:14:56.903Z,99569.78
2022-09-28T23:17:21.848Z,99570.47
2022-09-28T23:19:45.483Z,99576.75
2022-09-28T23:22:09.034Z,99570.19
2022-09-28T23:24:32.568Z,99578.31
2022-09-28T23:26:56.124Z,99573.63
2022-09-28T23:29:19.740Z,99573.88
2022-09-28T23:31:44.161Z,99568.72
2022-09-28T23:34:09.083Z,99569.03
2022-09-28T23:36:33.571Z,99563.88
2022-09-28T23:38:57.354Z,99565.56
2022-09-28T23:41:20.954Z,99560.13
2022-09-28T23:43:44.445Z,99567.19
2022-09-28T23:46:08.466Z,99565.56
2022-09-28T23:48:32.304Z,99568.88
2022-09-28T23:50:57.278Z,99566.56
2022-09-28T23:53:20.819Z,99571.84
2022-09-28T23:55:44.899Z,99574.44
2022-09-28T23:58:08.527Z,99573.22
